ADDS METAR Data INFO
IDs: Format: Raw Decoded Include TAF

Data at: 2005 UTC 19 Oct 2017

PPIT 191956Z AUTO 34003KT 1/2SM -SN FZFG OVC004 M03/M03 A2959 RMK AO2 SNB05 SLP019 P0000 T10281028 FZRANO TSNO
PPIT 191947Z AUTO 33004KT 1/2SM -SN FZFG OVC004 M03/M03 A2959 RMK AO2 SNB05 P0000 FZRANO TSNO
PPIT 191935Z AUTO 34004KT 1/4SM -SN FZFG OVC004 M03/M03 A2959 RMK AO2 SNB05 P0000 FZRANO TSNO
PPIT 191917Z AUTO 33006KT 1/2SM -SN FZFG OVC002 M03/M03 A2959 RMK AO2 SNB05 P0000 FZRANO TSNO
PPIT 191903Z AUTO 28005KT 1/4SM FZFG OVC002 M03/M03 A2959 RMK AO2 FZRANO TSNO
PPIT 191856Z AUTO 31004KT 3/4SM BR OVC002 M03/M03 A2959 RMK AO2 UPE29SNB35E47 SLP020 P0000 T10331033 FZRANO TSNO
PPIT 191811Z AUTO 31005KT 1/2SM UP FZFG OVC002 M03/M03 A2959 RMK AO2 P0000 FZRANO TSNO
PPIT 191804Z AUTO 32007KT 1SM UP BR OVC002 M03/M03 A2960 RMK AO2 VIS 1/2V2 P0000 FZRANO TSNO
PPIT 191756Z AUTO 32008KT 3/4SM UP BR OVC002 M03/M03 A2960 RMK AO2 UPB41SNE41 SLP022 P0000 60000 T10331033 11011 21033 53001 FZRANO TSNO
PPIT 191749Z AUTO 32007KT 3/4SM UP BR OVC002 M03/M03 A2960 RMK AO2 VIS 1/4V1 1/4 UPB41SNE41 P0000 FZRANO TSNO
PPIT 191735Z AUTO 31008KT 1/2SM -SN FZFG OVC002 M03/M03 A2959 RMK AO2 P0000 FZRANO TSNO
PPIT 191702Z AUTO 33005KT 3/4SM BR OVC002 M03/M03 A2959 RMK AO2 VIS 1/2V5 SNE01 P0000 FZRANO TSNO
PPIT 191638Z AUTO 34008KT 1SM -SN BR OVC002 M03/M03 A2960 RMK AO2 VIS 1/2V2 1/2 SNB05E20B36 P0000 FZRANO TSNO
PPIT 191556Z AUTO 31008KT 1 1/2SM BR OVC002 M03/M03 A2959 RMK AO2 VIS 1 1/4V4 SNB27E39 SLP022 P0000 T10281028 FZRANO TSNO
PPIT 191537Z AUTO 33009KT 2 1/2SM -SN BR OVC002 M02/M03 A2960 RMK AO2 VIS 1V5 SNB27 P0000 FZRANO TSNO
PPIT 191456Z AUTO 33011KT 2SM BR OVC004 M02/M02 A2960 RMK AO2 SLP024 T10171022 56004 FZRANO TSNO
PPIT 191454Z AUTO 34013KT 2SM BR OVC004 M02/M02 A2960 RMK AO2 VIS 1 1/4V3 FZRANO TSNO
PPIT 191444Z AUTO 32012KT 3SM BR OVC004 M02/M02 A2960 RMK AO2 FZRANO TSNO
PPIT 191437Z AUTO 32013KT 2 1/2SM BR OVC004 M02/M02 A2960 RMK AO2 VIS 1V5 FZRANO TSNO
PPIT 191415Z AUTO 33014KT 9SM OVC004 M02/M02 A2960 RMK AO2 FZRANO TSNO
PPIT 191356Z AUTO 33012KT 10SM OVC006 M02/M02 A2961 RMK AO2 SLP026 T10171017 FZRANO TSNO
PPIT 191256Z AUTO 32011KT 10SM OVC006 M01/M02 A2962 RMK AO2 SLP029 T10111017 FZRANO TSNO
PPIT 191217Z AUTO 27007KT 10SM BKN006 OVC046 M01/M02 A2962 RMK AO2 CIG 004V008 FZRANO TSNO
PPIT 191156Z AUTO 31009KT 10SM FEW004 BKN046 M01/M01 A2962 RMK AO2 SLP031 T10111011 10000 21011 50003 FZRANO TSNO
PPIT 191144Z AUTO 31011KT 10SM FEW004 BKN048 M01/M02 A2962 RMK AO2 FZRANO TSNO
PPIT 191128Z AUTO 32011KT 10SM BKN004 M01/M02 A2962 RMK AO2 FZRANO TSNO
PPIT 191056Z AUTO 32011KT 10SM FEW006 M01/M02 A2962 RMK AO2 SLP031 T10111017 FZRANO TSNO
PPIT 190956Z AUTO 32013KT 10SM BKN008 M01/M01 A2962 RMK AO2 SLP030 T10061006 FZRANO TSNO
PPIT 190856Z AUTO 31012KT 10SM FEW008 SCT029 M01/M01 A2961 RMK AO2 SLP027 T10061006 400281011 53002 FZRANO TSNO
PPIT 190848Z AUTO 31014KT 10SM SCT006 BKN031 00/M01 A2961 RMK AO2 FZRANO TSNO
PPIT 190756Z AUTO 31015KT 10SM OVC006 00/M01 A2961 RMK AO2 SLP026 T00001006 FZRANO TSNO
PPIT 190656Z AUTO 31014KT 10SM BKN006 00/M01 A2961 RMK AO2 SLP026 T00001006 FZRANO TSNO
PPIT 190630Z AUTO 30013KT 10SM SCT008 00/M01 A2960 RMK AO2 FZRANO TSNO
PPIT 190614Z AUTO 30014KT 10SM BKN008 BKN015 00/M01 A2960 RMK AO2 CIG 007V012 FZRANO TSNO
PPIT 190608Z AUTO 30014KT 10SM SCT010 BKN015 M01/M01 A2960 RMK AO2 FZRANO TSNO
PPIT 190556Z AUTO 29011KT 10SM SCT012 M01/M01 A2960 RMK AO2 SLP024 T10061011 10028 21006 51003 FZRANO TSNO
PPIT 190552Z AUTO 28011KT 10SM SCT014 M01/M02 A2960 RMK AO2 FZRANO TSNO
PPIT 190530Z AUTO 28009KT 10SM BKN016 00/M01 A2960 RMK AO2 FZRANO TSNO
PPIT 190456Z AUTO 29015KT 10SM CLR 01/M01 A2960 RMK AO2 SLP022 T00061006 FZRANO TSNO
PPIT 190356Z AUTO 30011KT 10SM CLR 01/M01 A2959 RMK AO2 SLP021 T00061006 FZRANO TSNO
PPIT 190256Z AUTO 31011KT 10SM CLR 01/M01 A2959 RMK AO2 SLP020 T00111006 55002 FZRANO TSNO
PPIT 190156Z AUTO 31011KT 10SM FEW021 BKN100 02/M01 A2959 RMK AO2 SLP019 T00171006 FZRANO TSNO
PPIT 190056Z AUTO 32013KT 10SM BKN039 02/M02 A2959 RMK AO2 SLP020 T00221017 FZRANO TSNO
PPIT 190035Z AUTO 32014KT 10SM SCT027 BKN039 03/M02 A2959 RMK AO2 TSNO
PPIT 190025Z AUTO 32014KT 10SM BKN027 BKN034 02/M02 A2959 RMK AO2 FZRANO TSNO
PPIT 182356Z AUTO 31013KT 10SM FEW032 02/M03 A2960 RMK AO2 SLP022 T00221028 10028 21006 56003 FZRANO TSNO
PPIT 182256Z AUTO 32013KT 10SM CLR 02/M02 A2960 RMK AO2 SLP023 T00221017 FZRANO TSNO
PPIT 182156Z AUTO 32014KT 10SM SCT009 02/M01 A2960 RMK AO2 SLP023 T00171011 FZRANO TSNO
PPIT 182056Z AUTO 33013KT 10SM OVC009 01/M01 A2960 RMK AO2 SLP025 T00061011 53007 FZRANO TSNO
PPIT 182012Z AUTO 32018KT 10SM OVC009 01/M01 A2960 RMK AO2 FZRANO TSNO
PPIT 181956Z AUTO 32019KT 10SM OVC011 01/M01 A2960 RMK AO2 SLP022 T00061006 FZRANO TSNO
PPIT 181932Z AUTO 31018KT 10SM BKN011 01/M01 A2959 RMK AO2 FZRANO TSNO
PPIT 181905Z AUTO 31016KT 10SM FEW008 01/M01 A2959 RMK AO2 FZRANO TSNO
PPIT 181856Z AUTO 29012KT 10SM CLR 01/00 A2959 RMK AO2 SLP019 T00060000 FZRANO TSNO
PPIT 181756Z AUTO 29011KT 10SM CLR M01/M01 A2959 RMK AO2 SLP018 T10061011 10017 21011 51003 FZRANO TSNO
PPIT 181656Z AUTO 30011KT 10SM FEW007 M01/M01 A2959 RMK AO2 SLP018 T10061011 FZRANO TSNO
PPIT 181634Z AUTO 30010KT 10SM FEW007 M01/M01 A2958 RMK AO2 FZRANO TSNO
PPIT 181556Z AUTO 31014KT 10SM CLR 00/M01 A2958 RMK AO2 SLP016 T00001011 FZRANO TSNO
PPIT 181456Z AUTO 32014KT 10SM FEW007 BKN041 01/M01 A2957 RMK AO2 SLP015 T00061006 55002 FZRANO TSNO
PPIT 181409Z AUTO 32014KT 10SM FEW009 OVC037 01/00 A2957 RMK AO2 FZRANO TSNO
PPIT 181156Z AUTO 29010KT 10SM BKN037 OVC049 01/00 A2958 RMK AO2 SLP017 60000 T00110000 10017 20011 50001 FZRANO TSNO
PPIT 181117Z AUTO 30008KT 10SM SCT008 OVC031 01/01 A2958 RMK AO2 FZRANO TSNO
PPIT 181056Z AUTO 31008KT 10SM BKN008 OVC027 02/01 A2958 RMK AO2 RAB0959E22UPB22E26 CIG 006V010 SLP017 P0000 T00170006 FZRANO TSNO
PPIT 181045Z AUTO 30008KT 10SM OVC008 02/01 A2958 RMK AO2 RAB0959E22UPB22E26 CIG 006V013 P0000 FZRANO TSNO
PPIT 181028Z AUTO 31009KT 10SM BKN010 BKN016 OVC025 02/01 A2958 RMK AO2 RAB0959E22UPB22E26 P0000 FZRANO TSNO
PPIT 180856Z AUTO 34010KT 10SM OVC015 02/00 A2958 RMK AO2 SLP016 T00170000 400331006 53009 FZRANO TSNO
PPIT 180841Z AUTO 35011KT 10SM OVC015 02/M01 A2958 RMK AO2 FZRANO TSNO